Time;durP1;ratioP1;P1;durP2;ratioP2;P2;SDS_P1;SDS_P2;PMS_P1;PMS_P2;Temp;Humidity;BMP_temperature;BMP_pressure;BME280_temperature;BME280_humidity;BME280_pressure;Samples;Min_cycle;Max_cycle;Signal;HPM_P1;HPM_P2
2021/07/27 00:00:21;;;;;;;6.80;4.93;;;;;;;18.19;97.16;97793.94;5031082;28;20042;-60
2021/07/27 00:02:46;;;;;;;11.65;5.50;;;;;;;17.61;100.00;97800.88;5030358;28;20559;-61
2021/07/27 00:05:11;;;;;;;8.38;4.68;;;;;;;17.69;100.00;97804.63;5029154;28;20032;-59
2021/07/27 00:07:38;;;;;;;7.72;4.50;;;;;;;18.04;98.61;97810.94;5032268;28;20025;-60
2021/07/27 00:10:06;;;;;;;6.55;4.60;;;;;;;18.04;97.96;97808.31;5031063;28;20032;-61
2021/07/27 00:12:31;;;;;;;7.93;4.90;;;;;;;17.99;100.00;97818.34;5029806;28;20037;-60
2021/07/27 00:14:57;;;;;;;8.05;4.90;;;;;;;17.89;99.37;97815.56;5028897;28;20021;-61
2021/07/27 00:17:24;;;;;;;8.85;4.70;;;;;;;18.04;99.25;97818.88;5029022;28;20444;-61
2021/07/27 00:19:50;;;;;;;9.63;4.43;;;;;;;17.75;100.00;97813.06;5029538;28;20021;-59
2021/07/27 00:22:15;;;;;;;7.47;5.00;;;;;;;17.65;100.00;97807.63;5044749;28;20037;-60
2021/07/27 00:24:40;;;;;;;7.80;4.68;;;;;;;17.67;99.92;97800.44;5029033;28;20021;-60
2021/07/27 00:27:06;;;;;;;7.43;4.63;;;;;;;17.84;97.49;97801.84;5029589;28;20128;-60
2021/07/27 00:29:33;;;;;;;6.05;4.68;;;;;;;17.63;98.84;97805.09;5029082;28;20025;-59
2021/07/27 00:31:58;;;;;;;8.45;5.20;;;;;;;17.53;100.00;97810.22;5030021;28;20094;-61
2021/07/27 00:34:25;;;;;;;6.15;4.50;;;;;;;17.68;99.90;97812.66;5030274;28;20033;-60
2021/07/27 00:36:51;;;;;;;7.93;4.20;;;;;;;17.83;100.00;97810.69;5026821;28;20045;-60
2021/07/27 00:39:16;;;;;;;6.93;4.60;;;;;;;17.63;99.49;97805.09;5028024;28;20052;-61
2021/07/27 00:41:41;;;;;;;7.82;5.13;;;;;;;17.35;100.00;97822.09;5030762;28;20044;-61
2021/07/27 00:44:07;;;;;;;7.30;4.90;;;;;;;17.45;100.00;97823.09;5032023;28;20030;-60
2021/07/27 00:46:32;;;;;;;7.63;4.97;;;;;;;17.32;99.71;97817.00;5027491;28;20036;-60
2021/07/27 00:48:59;;;;;;;7.45;4.70;;;;;;;16.97;100.00;97820.34;5028619;28;20021;-60
2021/07/27 00:51:24;;;;;;;10.38;4.75;;;;;;;17.23;100.00;97828.22;5029289;28;20692;-60
2021/07/27 00:53:49;;;;;;;7.07;4.85;;;;;;;17.10;100.00;97829.06;5028108;28;20577;-60
2021/07/27 00:56:15;;;;;;;8.63;4.93;;;;;;;17.22;100.00;97831.78;5028084;28;20124;-60
2021/07/27 00:58:41;;;;;;;7.75;4.50;;;;;;;17.37;99.03;97830.72;5029052;28;20044;-60
2021/07/27 01:01:06;;;;;;;7.72;4.93;;;;;;;17.10;100.00;97825.59;5027456;28;20041;-60
2021/07/27 01:03:32;;;;;;;11.38;4.63;;;;;;;17.11;100.00;97829.91;5030135;28;20021;-61
2021/07/27 01:05:58;;;;;;;7.68;4.45;;;;;;;17.41;99.48;97826.06;5029561;28;20943;-62
2021/07/27 01:08:24;;;;;;;11.55;5.20;;;;;;;16.70;100.00;97818.63;5030062;28;20529;-61
2021/07/27 01:10:49;;;;;;;7.70;4.97;;;;;;;17.08;100.00;97822.25;5028004;28;20040;-59
2021/07/27 01:13:14;;;;;;;7.60;5.10;;;;;;;17.00;100.00;97830.69;5030823;28;20075;-60
2021/07/27 01:15:40;;;;;;;7.75;4.80;;;;;;;16.75;100.00;97818.34;5027287;28;20030;-60
2021/07/27 01:18:10;;;;;;;11.35;4.93;;;;;;;16.89;100.00;97809.50;5028387;28;20086;-60
2021/07/27 01:37:25;;;;;;;9.38;4.70;;;;;;;16.79;100.00;97818.97;5028788;28;20029;-61
2021/07/27 01:37:36;;;;;;;9.32;4.90;;;;;;;16.48;100.00;97815.78;5028680;28;20041;-60
2021/07/27 01:40:02;;;;;;;9.98;4.80;;;;;;;16.65;100.00;97812.00;5027997;28;20020;-58
2021/07/27 01:42:30;;;;;;;6.78;4.55;;;;;;;16.96;100.00;97810.75;5027573;28;20033;-60
2021/07/27 01:45:12;;;;;;;5.95;4.13;;;;;;;17.20;100.00;97808.16;5025455;28;20664;-59
2021/07/27 01:47:38;;;;;;;8.55;5.05;;;;;;;16.52;100.00;97804.09;5029806;28;20045;-59
2021/07/27 01:50:03;;;;;;;8.45;5.47;;;;;;;16.32;100.00;97810.72;5027099;28;20022;-59
2021/07/27 01:52:29;;;;;;;8.30;5.13;;;;;;;16.51;100.00;97799.81;5029555;28;20567;-60
2021/07/27 01:54:55;;;;;;;11.52;4.78;;;;;;;16.80;100.00;97796.94;5028795;28;20029;-61
2021/07/27 01:57:26;;;;;;;6.15;4.13;;;;;;;16.94;99.14;97807.38;5028005;28;20041;-62
2021/07/27 01:59:57;;;;;;;6.75;4.53;;;;;;;16.96;100.00;97808.13;5028398;28;20033;-60
2021/07/27 02:02:23;;;;;;;12.95;4.60;;;;;;;16.69;100.00;97808.19;5027792;28;20167;-58
2021/07/27 02:04:48;;;;;;;7.40;4.30;;;;;;;16.90;100.00;97806.75;5027109;28;20597;-58
2021/07/27 02:07:13;;;;;;;7.57;4.55;;;;;;;17.00;98.83;97809.59;5027003;28;20045;-58
2021/07/27 02:09:44;;;;;;;5.45;3.50;;;;;;;17.13;98.10;97818.31;5028587;28;20024;-60
2021/07/27 02:12:16;;;;;;;7.00;4.28;;;;;;;17.06;99.26;97811.81;5027751;28;20037;-59
2021/07/27 02:17:25;;;;;;;6.07;3.75;;;;;;;17.24;96.79;97819.34;5026091;28;20068;-58
2021/07/27 02:19:50;;;;;;;9.85;4.90;;;;;;;17.09;98.03;97819.50;5028538;28;20590;-59
2021/07/27 02:22:17;;;;;;;7.65;3.92;;;;;;;16.72;100.00;97816.72;5028322;28;20418;-60
2021/07/27 02:24:45;;;;;;;8.13;4.38;;;;;;;17.08;96.55;97801.16;5027158;28;20250;-58
2021/07/27 02:27:11;;;;;;;4.95;3.78;;;;;;;17.17;96.94;97807.53;5026767;28;20423;-59
2021/07/27 02:29:37;;;;;;;5.20;3.40;;;;;;;17.12;97.46;97802.63;5027007;28;20040;-59
2021/07/27 02:32:03;;;;;;;9.05;4.57;;;;;;;16.35;100.00;97800.81;5028142;28;20040;-58
2021/07/27 02:34:31;;;;;;;6.63;4.20;;;;;;;16.55;100.00;97801.28;5027921;28;20041;-59
2021/07/27 02:36:57;;;;;;;10.25;4.50;;;;;;;16.34;100.00;97803.59;5026910;28;20037;-58
2021/07/27 02:39:22;;;;;;;11.30;4.97;;;;;;;16.26;99.34;97796.19;5028138;28;20025;-59
2021/07/27 02:41:48;;;;;;;5.60;3.78;;;;;;;16.67;98.33;97797.81;5026395;28;20328;-60
2021/07/27 02:44:13;;;;;;;10.95;4.60;;;;;;;16.53;97.80;97797.91;5025422;28;20048;-59
2021/07/27 02:46:38;;;;;;;6.10;3.83;;;;;;;16.65;99.04;97802.34;5030579;28;20052;-58
2021/07/27 02:49:04;;;;;;;7.53;4.63;;;;;;;16.43;99.40;97799.47;5029435;28;20114;-58
2021/07/27 02:51:29;;;;;;;8.32;4.38;;;;;;;16.46;100.00;97797.47;5027600;28;20068;-61
2021/07/27 02:53:55;;;;;;;11.15;4.28;;;;;;;16.50;100.00;97803.38;5029230;28;20110;-61
2021/07/27 02:56:20;;;;;;;8.68;5.20;;;;;;;16.07;100.00;97806.28;5026276;28;20214;-59
2021/07/27 02:58:45;;;;;;;7.38;4.93;;;;;;;15.98;100.00;97795.41;5028552;28;20144;-59
2021/07/27 03:01:11;;;;;;;9.73;4.88;;;;;;;15.92;100.00;97803.72;5027349;28;20045;-59
2021/07/27 03:03:36;;;;;;;8.68;4.68;;;;;;;16.08;100.00;97808.81;5026529;28;20041;-60
2021/07/27 03:06:02;;;;;;;8.15;4.20;;;;;;;16.36;100.00;97812.22;5025547;28;20057;-59
2021/07/27 03:11:13;;;;;;;7.13;4.50;;;;;;;16.76;97.19;97815.59;5026594;28;20382;-58
2021/07/27 03:13:42;;;;;;;8.05;4.20;;;;;;;16.54;99.30;97816.22;5026159;28;20087;-60
2021/07/27 03:16:13;;;;;;;9.00;4.85;;;;;;;16.24;99.16;97819.13;5025133;28;20037;-59
2021/07/27 03:18:38;;;;;;;5.95;3.78;;;;;;;16.32;100.00;97818.63;5027548;28;20025;-59
2021/07/27 03:21:03;;;;;;;10.68;4.68;;;;;;;16.09;99.33;97821.00;5030623;28;20048;-59
2021/07/27 03:23:29;;;;;;;6.05;4.20;;;;;;;16.19;98.72;97822.09;5030185;28;20025;-58
2021/07/27 03:25:54;;;;;;;5.55;3.70;;;;;;;16.68;98.58;97828.44;5031620;28;20053;-60
2021/07/27 03:28:20;;;;;;;9.45;4.40;;;;;;;16.58;95.66;97820.34;5030889;28;20481;-60
2021/07/27 03:30:46;;;;;;;8.07;4.55;;;;;;;16.14;100.00;97826.81;5030324;28;20091;-58
2021/07/27 03:33:14;;;;;;;7.07;4.40;;;;;;;15.93;99.90;97834.31;5030158;28;20022;-58
2021/07/27 03:35:39;;;;;;;7.32;4.95;;;;;;;15.96;98.39;97826.22;5030557;28;20029;-59
2021/07/27 03:38:05;;;;;;;6.95;5.00;;;;;;;15.59;100.00;97823.34;5028971;28;20014;-59
2021/07/27 03:40:30;;;;;;;8.13;4.63;;;;;;;15.61;100.00;97821.44;5031482;28;20055;-60
2021/07/27 03:42:55;;;;;;;9.93;5.30;;;;;;;15.58;100.00;97819.00;5028852;28;20020;-58
2021/07/27 03:45:21;;;;;;;7.53;4.57;;;;;;;16.15;100.00;97823.22;5029148;28;20041;-58
2021/07/27 03:47:46;;;;;;;5.80;3.88;;;;;;;16.48;100.00;97821.06;5031377;28;20117;-59
2021/07/27 03:50:11;;;;;;;7.10;4.25;;;;;;;16.45;99.22;97818.63;5030307;28;20036;-58
2021/07/27 03:52:37;;;;;;;10.82;5.05;;;;;;;16.09;98.12;97826.25;5031130;28;20017;-59
2021/07/27 03:55:03;;;;;;;8.40;5.10;;;;;;;15.71;100.00;97826.09;5029616;28;20021;-58
2021/07/27 03:57:28;;;;;;;7.55;5.10;;;;;;;15.73;100.00;97825.09;5030689;28;20037;-59
2021/07/27 03:59:54;;;;;;;8.70;4.50;;;;;;;15.70;100.00;97827.06;5030790;28;20376;-58
2021/07/27 04:02:19;;;;;;;7.20;3.75;;;;;;;15.98;100.00;97824.34;5028077;28;20036;-59
2021/07/27 04:04:47;;;;;;;11.10;5.10;;;;;;;15.60;100.00;97825.03;5029799;28;20048;-58
2021/07/27 04:07:14;;;;;;;11.57;5.00;;;;;;;15.69;100.00;97822.75;5027952;28;20118;-59
2021/07/27 04:09:40;;;;;;;6.55;4.72;;;;;;;15.78;100.00;97832.69;5028016;28;20766;-59
2021/07/27 04:12:05;;;;;;;7.18;3.85;;;;;;;16.29;96.70;97832.84;5030489;28;20129;-59
2021/07/27 04:14:34;;;;;;;6.25;4.35;;;;;;;16.07;98.54;97832.59;5029383;28;20028;-58
2021/07/27 04:16:59;;;;;;;8.55;4.75;;;;;;;15.84;99.27;97832.28;5031317;28;20076;-58
2021/07/27 04:19:24;;;;;;;5.72;3.53;;;;;;;16.65;97.39;97833.06;5030331;28;20057;-60
2021/07/27 04:21:49;;;;;;;6.97;4.20;;;;;;;16.74;94.24;97835.94;5029075;28;20037;-60
2021/07/27 04:24:17;;;;;;;6.53;4.25;;;;;;;16.97;93.47;97836.16;5031229;28;20711;-60
2021/07/27 04:26:42;;;;;;;8.10;4.78;;;;;;;16.72;93.94;97839.59;5027162;28;20136;-59
2021/07/27 04:29:07;;;;;;;6.72;3.80;;;;;;;16.80;96.30;97837.31;5028742;28;20458;-59
2021/07/27 04:31:33;;;;;;;9.63;4.80;;;;;;;16.19;96.40;97834.38;5026946;28;20064;-59
2021/07/27 04:33:58;;;;;;;7.38;3.97;;;;;;;16.55;96.12;97832.88;5027150;28;20218;-59
2021/07/27 04:36:23;;;;;;;12.32;4.95;;;;;;;16.64;95.08;97841.94;5025567;28;20041;-58
2021/07/27 04:38:48;;;;;;;7.10;4.60;;;;;;;16.57;94.71;97836.22;5029319;28;20024;-58
2021/07/27 04:41:14;;;;;;;7.88;4.43;;;;;;;17.37;94.30;97841.25;5028730;28;20505;-58
2021/07/27 04:43:40;;;;;;;6.10;3.97;;;;;;;17.37;92.41;97841.25;5029655;28;20124;-59
2021/07/27 04:46:07;;;;;;;9.50;4.60;;;;;;;16.91;92.84;97833.97;5028005;28;20046;-59
2021/07/27 04:48:37;;;;;;;7.45;4.65;;;;;;;16.94;94.68;97839.84;5027527;28;20041;-59
2021/07/27 04:51:02;;;;;;;9.43;4.50;;;;;;;17.06;92.62;97838.16;5027653;28;20053;-58
2021/07/27 04:53:30;;;;;;;8.57;4.57;;;;;;;17.01;94.08;97835.00;5029624;28;20025;-60
2021/07/27 04:56:00;;;;;;;11.30;4.93;;;;;;;16.73;95.26;97839.50;5027925;28;20118;-59
2021/07/27 04:58:26;;;;;;;10.85;4.82;;;;;;;16.79;95.21;97835.59;5030761;28;20258;-59
2021/07/27 05:00:51;;;;;;;8.57;4.95;;;;;;;17.05;94.22;97839.09;5029610;28;21032;-59
2021/07/27 05:03:16;;;;;;;8.48;4.90;;;;;;;17.11;93.67;97838.69;5019910;28;20056;-59
2021/07/27 05:05:42;;;;;;;9.85;4.55;;;;;;;17.45;93.70;97838.91;5031849;28;20037;-59
2021/07/27 05:08:07;;;;;;;13.20;4.78;;;;;;;17.95;90.04;97841.50;5030351;28;20031;-59
2021/07/27 05:10:32;;;;;;;8.25;4.85;;;;;;;18.05;90.44;97841.66;5031576;28;20896;-58
2021/07/27 05:12:58;;;;;;;7.93;4.60;;;;;;;18.56;86.89;97836.03;5030277;28;20029;-61
2021/07/27 05:15:24;;;;;;;8.05;4.25;;;;;;;18.38;88.66;97834.78;5030274;28;20033;-59
2021/07/27 05:17:54;;;;;;;10.40;4.90;;;;;;;18.68;86.96;97842.19;5030341;28;20025;-59
2021/07/27 05:20:19;;;;;;;9.32;4.25;;;;;;;18.72;87.48;97834.88;5030337;28;20025;-58
2021/07/27 05:22:45;;;;;;;7.95;4.65;;;;;;;18.90;86.34;97832.66;5029118;28;20036;-59
2021/07/27 05:25:11;;;;;;;9.85;4.68;;;;;;;18.99;85.96;97837.22;5030057;28;20026;-58
2021/07/27 05:27:37;;;;;;;5.90;4.15;;;;;;;19.23;84.67;97831.81;5031428;28;20022;-59
2021/07/27 05:30:03;;;;;;;9.35;5.15;;;;;;;18.85;86.49;97840.94;5032127;28;20017;-60
2021/07/27 05:32:28;;;;;;;11.90;4.93;;;;;;;18.93;86.13;97838.56;5026394;28;20120;-60
2021/07/27 05:34:54;;;;;;;7.43;4.57;;;;;;;19.21;85.67;97837.22;5030223;28;20107;-60
2021/07/27 05:37:20;;;;;;;8.10;4.85;;;;;;;19.35;84.98;97838.75;5030671;28;20033;-59
2021/07/27 05:39:46;;;;;;;9.98;4.90;;;;;;;19.36;85.56;97845.72;5028036;28;20071;-59
2021/07/27 05:42:11;;;;;;;7.72;4.05;;;;;;;19.41;85.13;97838.28;5028672;28;20036;-59
2021/07/27 05:44:37;;;;;;;10.77;5.45;;;;;;;19.44;84.02;97838.00;5031278;28;20459;-59
2021/07/27 05:47:03;;;;;;;11.15;4.70;;;;;;;20.33;80.84;97837.91;5032621;28;20414;-59
2021/07/27 05:49:29;;;;;;;7.97;4.82;;;;;;;21.64;74.88;97842.63;5031825;28;20513;-58
2021/07/27 05:51:55;;;;;;;9.32;3.90;;;;;;;23.00;69.70;97830.25;5032008;28;20038;-59
2021/07/27 05:54:21;;;;;;;10.23;4.03;;;;;;;24.72;65.09;97824.09;5032234;28;20032;-58
2021/07/27 05:56:47;;;;;;;6.75;3.90;;;;;;;25.66;60.76;97827.72;5029395;28;20051;-58
2021/07/27 05:59:17;;;;;;;10.05;4.50;;;;;;;26.31;59.22;97826.97;5030274;28;20060;-60
2021/07/27 06:01:42;;;;;;;10.15;4.43;;;;;;;26.15;57.99;97826.97;5030579;28;20140;-60
2021/07/27 06:04:09;;;;;;;9.40;4.22;;;;;;;28.04;53.30;97824.63;5028245;28;20090;-59
2021/07/27 06:06:35;;;;;;;12.68;4.18;;;;;;;29.08;52.19;97826.75;5030887;28;20764;-60
2021/07/27 06:09:03;;;;;;;14.43;4.22;;;;;;;27.88;51.69;97822.88;5030929;28;20112;-59
2021/07/27 06:11:30;;;;;;;8.10;3.90;;;;;;;28.30;52.78;97826.13;5030292;28;20036;-59
2021/07/27 06:13:55;;;;;;;9.27;3.92;;;;;;;29.01;51.76;97825.81;5030322;28;20025;-59
2021/07/27 06:16:23;;;;;;;8.25;4.10;;;;;;;28.60;50.59;97828.91;5031881;28;20048;-60
2021/07/27 06:18:49;;;;;;;6.85;3.47;;;;;;;32.44;44.70;97825.38;5032815;28;20064;-60
2021/07/27 06:21:15;;;;;;;5.72;3.65;;;;;;;30.98;45.33;97827.53;5029474;28;20064;-62
2021/07/27 06:23:40;;;;;;;7.05;3.78;;;;;;;29.27;48.94;97829.94;5030685;28;20054;-61
2021/07/27 06:26:06;;;;;;;7.35;3.67;;;;;;;28.74;50.01;97820.03;5028458;28;20498;-61
2021/07/27 06:28:32;;;;;;;9.50;4.00;;;;;;;29.17;49.07;97822.13;5029886;28;20068;-59
2021/07/27 06:30:58;;;;;;;8.80;3.78;;;;;;;29.95;46.89;97830.56;5028234;28;20049;-59
2021/07/27 06:33:23;;;;;;;8.27;3.72;;;;;;;30.43;46.10;97825.44;5028349;28;20071;-59
2021/07/27 06:35:48;;;;;;;5.65;3.60;;;;;;;32.20;43.73;97823.28;5029568;28;20036;-59
2021/07/27 06:38:14;;;;;;;11.88;3.78;;;;;;;29.83;46.63;97826.69;5028882;28;20025;-58
2021/07/27 06:40:39;;;;;;;8.77;3.88;;;;;;;31.30;45.31;97829.59;5031105;28;20502;-59
2021/07/27 06:43:04;;;;;;;4.97;3.30;;;;;;;31.30;44.59;97831.44;5027838;28;20501;-59
2021/07/27 06:45:30;;;;;;;8.40;3.47;;;;;;;31.45;43.58;97832.16;5028948;28;20639;-59
2021/07/27 06:47:55;;;;;;;7.65;3.42;;;;;;;30.60;45.46;97836.75;5031086;28;20033;-61
2021/07/27 06:50:21;;;;;;;7.78;3.20;;;;;;;32.72;41.65;97832.47;5028094;28;21705;-59
2021/07/27 06:52:46;;;;;;;7.47;3.58;;;;;;;31.20;42.93;97837.19;5028842;28;20128;-59
2021/07/27 06:55:11;;;;;;;8.13;3.60;;;;;;;34.44;38.42;97844.72;5028904;28;20458;-61
2021/07/27 06:57:37;;;;;;;11.77;3.70;;;;;;;32.40;40.47;97843.00;5031356;28;20461;-61
2021/07/27 07:00:04;;;;;;;8.52;3.60;;;;;;;30.96;43.67;97848.47;5027292;28;20057;-58
2021/07/27 07:02:30;;;;;;;9.13;3.28;;;;;;;34.59;37.34;97849.81;5030378;28;20025;-60
2021/07/27 07:04:57;;;;;;;7.68;3.50;;;;;;;32.17;42.02;97848.00;5029924;28;20028;-61
2021/07/27 07:07:22;;;;;;;7.43;3.20;;;;;;;33.40;40.58;97850.25;5026892;28;20330;-61
2021/07/27 07:09:48;;;;;;;8.25;3.90;;;;;;;34.12;38.08;97850.94;5029699;28;20029;-60
2021/07/27 07:12:13;;;;;;;8.27;3.58;;;;;;;35.32;36.74;97838.31;5027506;28;20041;-61
2021/07/27 07:14:39;;;;;;;7.65;3.30;;;;;;;34.07;37.81;97847.25;5028504;28;20079;-61
2021/07/27 07:17:04;;;;;;;8.27;3.45;;;;;;;35.90;35.47;97840.53;5029754;28;20745;-59
2021/07/27 07:19:30;;;;;;;7.63;3.50;;;;;;;33.01;38.90;97843.84;5030011;28;20112;-60
2021/07/27 07:21:55;;;;;;;7.80;3.33;;;;;;;34.07;37.97;97841.84;5030893;28;20079;-64
2021/07/27 07:24:20;;;;;;;5.43;3.10;;;;;;;34.51;37.53;97848.22;5030018;28;20029;-60
2021/07/27 07:26:49;;;;;;;4.45;2.90;;;;;;;33.87;38.31;97848.19;5029234;28;20639;-61
2021/07/27 07:29:15;;;;;;;9.05;3.30;;;;;;;34.06;37.51;97848.28;5030669;28;20033;-61
2021/07/27 07:31:40;;;;;;;11.45;3.30;;;;;;;31.83;41.56;97853.25;5028146;28;20025;-59
2021/07/27 07:34:05;;;;;;;5.23;2.90;;;;;;;31.84;40.61;97852.22;5027232;28;20072;-60
2021/07/27 07:36:30;;;;;;;7.25;3.10;;;;;;;33.53;38.05;97846.66;5031234;28;20311;-60
2021/07/27 07:38:56;;;;;;;6.37;3.23;;;;;;;33.67;37.20;97847.44;5029407;28;20158;-59
2021/07/27 07:41:23;;;;;;;8.60;3.17;;;;;;;33.02;38.60;97851.75;5028017;28;20268;-60
2021/07/27 07:43:49;;;;;;;4.70;3.08;;;;;;;35.07;36.34;97847.31;5032483;28;20553;-60
2021/07/27 07:46:14;;;;;;;4.43;3.08;;;;;;;35.08;35.90;97843.53;5026887;28;20169;-60
2021/07/27 07:48:40;;;;;;;8.10;3.05;;;;;;;31.44;41.62;97832.34;5028960;28;20029;-61
2021/07/27 07:51:05;;;;;;;6.57;3.30;;;;;;;32.78;39.59;97839.72;5028964;28;20044;-59
2021/07/27 07:53:32;;;;;;;5.85;3.15;;;;;;;34.35;36.31;97846.88;5030101;28;20033;-60
2021/07/27 07:55:57;;;;;;;6.43;3.10;;;;;;;34.91;36.39;97842.47;5027743;28;20640;-59
2021/07/27 07:58:22;;;;;;;5.80;3.15;;;;;;;32.71;39.03;97838.91;5028971;28;20064;-59
2021/07/27 08:00:48;;;;;;;4.90;2.83;;;;;;;36.31;33.71;97837.28;5027850;28;20171;-60
2021/07/27 08:03:13;;;;;;;5.40;2.97;;;;;;;34.29;37.01;97845.03;5030491;28;20093;-62
2021/07/27 08:05:38;;;;;;;6.35;3.00;;;;;;;33.60;37.82;97840.19;5030629;28;20276;-60
2021/07/27 08:08:04;;;;;;;11.48;3.00;;;;;;;32.48;40.03;97839.31;5031493;28;20036;-61
2021/07/27 08:10:29;;;;;;;5.95;2.90;;;;;;;31.35;41.40;97838.94;5031890;28;20070;-61
2021/07/27 08:12:55;;;;;;;4.93;2.72;;;;;;;32.82;39.43;97840.97;5031972;28;20032;-61
2021/07/27 08:15:25;;;;;;;4.57;2.92;;;;;;;33.18;37.75;97845.09;5032386;28;20025;-62
2021/07/27 08:17:50;;;;;;;4.78;2.90;;;;;;;34.63;36.44;97835.63;5032922;28;20021;-62
2021/07/27 08:20:15;;;;;;;5.15;2.97;;;;;;;35.19;35.10;97835.75;5032101;28;20036;-62
2021/07/27 08:22:44;;;;;;;4.65;3.17;;;;;;;34.35;35.63;97845.00;5032569;28;20024;-63
2021/07/27 08:25:15;;;;;;;6.43;3.25;;;;;;;35.33;35.42;97834.56;5030697;28;20044;-61
2021/07/27 08:27:40;;;;;;;;;;;;;;;32.41;39.24;97839.28;5033859;28;20123;-61
2021/07/27 08:30:06;;;;;;;4.32;2.80;;;;;;;34.44;36.11;97829.31;5031746;28;20650;-61
2021/07/27 08:32:32;;;;;;;4.95;2.80;;;;;;;33.63;38.78;97829.97;5032495;28;20059;-58
2021/07/27 08:34:57;;;;;;;4.80;2.97;;;;;;;30.92;41.54;97832.69;5033578;28;20051;-60
2021/07/27 08:37:22;;;;;;;5.25;3.60;;;;;;;30.14;43.14;97842.53;5032078;28;20435;-60
2021/07/27 08:39:48;;;;;;;5.25;3.20;;;;;;;28.69;46.00;97837.72;5029440;28;20032;-60
2021/07/27 08:42:16;;;;;;;5.57;3.05;;;;;;;30.53;42.91;97842.09;5033416;28;20037;-58
2021/07/27 08:44:43;;;;;;;5.03;2.90;;;;;;;29.67;44.69;97836.63;5030906;28;20538;-60
2021/07/27 08:47:10;;;;;;;5.63;3.40;;;;;;;29.47;44.73;97844.44;5032124;28;20042;-58
2021/07/27 08:49:35;;;;;;;6.13;3.13;;;;;;;28.66;46.96;97836.25;5031840;28;20056;-60
2021/07/27 08:52:02;;;;;;;7.88;3.30;;;;;;;30.12;44.33;97842.72;5031210;28;20120;-58
2021/07/27 08:54:27;;;;;;;5.47;3.10;;;;;;;31.79;40.61;97841.22;5032363;28;20094;-61
2021/07/27 08:56:54;;;;;;;5.90;3.00;;;;;;;31.32;40.55;97840.16;5033834;28;20481;-60
2021/07/27 08:59:21;;;;;;;5.22;3.17;;;;;;;28.44;46.16;97841.41;5031879;28;20040;-59
2021/07/27 09:01:51;;;;;;;7.82;3.30;;;;;;;28.43;46.20;97838.91;5030112;28;20624;-59
2021/07/27 09:04:26;;;;;;;6.93;3.40;;;;;;;29.51;45.15;97831.47;5032430;28;20084;-59
2021/07/27 09:07:03;;;;;;;5.43;3.30;;;;;;;29.81;44.30;97842.19;5033517;28;20037;-59
2021/07/27 09:09:30;;;;;;;9.73;3.58;;;;;;;27.58;48.67;97850.50;5033608;28;20087;-60
2021/07/27 09:11:57;;;;;;;6.60;3.38;;;;;;;29.21;45.32;97842.25;5032938;28;20510;-60
2021/07/27 09:14:23;;;;;;;4.95;3.25;;;;;;;29.34;44.89;97837.03;5030433;28;20033;-58
2021/07/27 09:16:55;;;;;;;5.13;3.40;;;;;;;27.54;48.40;97833.94;5032806;28;20092;-59
2021/07/27 09:19:21;;;;;;;7.00;3.25;;;;;;;28.44;46.81;97848.66;5031529;28;20032;-60
2021/07/27 09:21:47;;;;;;;5.50;3.30;;;;;;;28.49;47.38;97843.56;5030041;28;20432;-58
2021/07/27 09:24:23;;;;;;;4.97;3.30;;;;;;;29.72;44.25;97844.97;5032559;28;20108;-59
2021/07/27 09:26:59;;;;;;;6.15;3.03;;;;;;;30.21;43.33;97842.59;5031509;28;20050;-60
2021/07/27 09:29:27;;;;;;;5.78;3.30;;;;;;;28.23;46.41;97839.44;5029200;28;20044;-60
2021/07/27 09:31:54;;;;;;;5.00;2.90;;;;;;;28.82;45.94;97840.59;5030560;28;20115;-60
2021/07/27 09:34:20;;;;;;;6.45;3.25;;;;;;;28.38;46.38;97846.66;5032320;28;20101;-59
2021/07/27 09:36:46;;;;;;;4.60;3.15;;;;;;;28.63;45.59;97845.47;5029978;28;20041;-59
2021/07/27 09:39:11;;;;;;;4.85;3.67;;;;;;;28.51;46.77;97852.28;5029886;28;20411;-60
2021/07/27 09:41:36;;;;;;;5.32;3.47;;;;;;;28.22;46.79;97847.66;5030797;28;20086;-60
2021/07/27 09:44:06;;;;;;;6.05;3.42;;;;;;;28.18;47.48;97852.53;5030442;28;20045;-58
2021/07/27 09:46:32;;;;;;;9.63;3.50;;;;;;;28.25;46.78;97848.13;5030024;28;20072;-61
2021/07/27 09:48:59;;;;;;;4.95;3.42;;;;;;;27.61;47.21;97839.47;5031568;28;20028;-60
2021/07/27 09:51:28;;;;;;;5.70;3.33;;;;;;;29.61;44.02;97842.72;5030905;28;20033;-59
2021/07/27 09:53:54;;;;;;;4.65;3.17;;;;;;;31.29;41.25;97841.38;5032034;28;20481;-59
2021/07/27 09:56:20;;;;;;;4.90;3.30;;;;;;;29.63;44.43;97834.50;5030503;28;20032;-60
2021/07/27 09:58:46;;;;;;;5.40;3.20;;;;;;;30.16;43.92;97825.19;5045498;28;20132;-61
2021/07/27 10:01:23;;;;;;;6.82;3.30;;;;;;;28.21;45.36;97825.38;5031607;28;20044;-60
2021/07/27 10:03:57;;;;;;;4.30;3.20;;;;;;;28.00;47.07;97828.69;5031112;28;20025;-60
2021/07/27 10:06:28;;;;;;;5.05;3.42;;;;;;;30.45;40.40;97822.56;5033320;28;20635;-60
2021/07/27 10:08:59;;;;;;;6.10;3.20;;;;;;;30.64;41.20;97826.44;5030505;28;20033;-60
2021/07/27 10:11:44;;;;;;;4.47;3.25;;;;;;;29.17;44.21;97822.13;5029810;28;20043;-60
2021/07/27 10:14:15;;;;;;;6.55;3.33;;;;;;;28.31;47.13;97818.91;5032033;28;20100;-59
2021/07/27 10:16:41;;;;;;;6.47;3.13;;;;;;;28.89;46.86;97820.06;5030470;28;20281;-59
2021/07/27 10:19:19;;;;;;;5.45;3.22;;;;;;;28.53;47.88;97823.44;5029291;28;20155;-60
2021/07/27 10:21:46;;;;;;;7.07;3.40;;;;;;;29.19;45.65;97825.50;5029070;28;20602;-59
2021/07/27 10:24:14;;;;;;;5.97;3.13;;;;;;;29.58;44.58;97822.47;5030925;28;20453;-59
2021/07/27 10:26:41;;;;;;;6.85;3.55;;;;;;;29.65;45.63;97827.06;5030558;28;20071;-58
2021/07/27 10:29:06;;;;;;;5.00;3.70;;;;;;;29.66;43.87;97824.19;5029750;28;20029;-60
2021/07/27 10:31:38;;;;;;;4.60;3.30;;;;;;;29.51;43.14;97820.72;5028357;28;20041;-59
2021/07/27 10:34:06;;;;;;;5.45;3.40;;;;;;;29.28;43.54;97826.19;5030260;28;20043;-59
2021/07/27 10:36:37;;;;;;;5.55;3.63;;;;;;;30.39;40.75;97824.19;5029102;28;20044;-60
2021/07/27 10:39:16;;;;;;;7.13;3.60;;;;;;;30.00;41.43;97820.06;5029811;28;20462;-59
2021/07/27 10:41:44;;;;;;;6.70;3.40;;;;;;;30.42;39.81;97815.72;5031095;28;20033;-59
2021/07/27 10:44:12;;;;;;;6.28;3.42;;;;;;;31.22;39.37;97813.59;5030519;28;20033;-60
2021/07/27 10:46:43;;;;;;;6.25;3.70;;;;;;;31.03;39.94;97814.31;5032124;28;20041;-59
2021/07/27 10:49:22;;;;;;;5.43;3.70;;;;;;;30.90;39.75;97815.88;5028174;28;20067;-60
2021/07/27 10:51:49;;;;;;;4.40;3.47;;;;;;;32.23;37.34;97809.38;5028838;28;20037;-59
2021/07/27 10:54:16;;;;;;;8.48;3.10;;;;;;;31.85;38.30;97812.59;5028732;28;20048;-60
2021/07/27 10:56:59;;;;;;;5.38;3.67;;;;;;;33.12;36.10;97818.94;5030755;28;20202;-59
2021/07/27 10:59:31;;;;;;;4.88;3.00;;;;;;;32.07;38.52;97808.75;5029910;28;20112;-58
2021/07/27 11:01:57;;;;;;;;;;;;;;;31.75;38.97;97806.78;5030081;28;20041;-58
2021/07/27 11:04:29;;;;;;;5.90;3.20;;;;;;;32.49;36.74;97805.03;5030616;28;19955;-59
2021/07/27 11:07:15;;;;;;;5.80;3.67;;;;;;;32.58;36.99;97807.34;5027764;28;20348;-59
2021/07/27 11:09:50;;;;;;;5.22;3.38;;;;;;;31.62;38.21;97802.19;5028169;28;20044;-59
2021/07/27 11:12:34;;;;;;;4.75;3.17;;;;;;;31.94;37.04;97799.75;5030102;28;20045;-59
2021/07/27 11:15:14;;;;;;;6.55;3.47;;;;;;;31.42;39.37;97791.28;5028238;28;20033;-60
2021/07/27 11:18:03;;;;;;;4.93;3.50;;;;;;;32.50;37.94;97791.34;5028750;28;20042;-59
2021/07/27 11:20:32;;;;;;;6.07;3.60;;;;;;;31.51;38.76;97788.25;5030587;28;20041;-60
2021/07/27 11:23:00;;;;;;;4.30;3.38;;;;;;;30.52;39.83;97780.41;5033333;28;20080;-59
2021/07/27 11:25:27;;;;;;;4.85;3.47;;;;;;;30.20;40.32;97781.75;5029507;28;20110;-58
2021/07/27 11:27:53;;;;;;;5.90;3.40;;;;;;;31.03;40.63;97788.22;5030322;28;20025;-59
2021/07/27 11:30:20;;;;;;;7.53;3.55;;;;;;;31.50;37.78;97783.06;5030847;28;20060;-59
2021/07/27 11:32:50;;;;;;;5.18;3.33;;;;;;;30.58;39.56;97778.78;5029512;28;20061;-59
2021/07/27 11:35:19;;;;;;;6.00;3.30;;;;;;;30.65;40.95;97774.28;5027960;28;20037;-60
2021/07/27 11:37:45;;;;;;;5.28;3.72;;;;;;;31.03;38.59;97776.63;5030792;28;20051;-58
2021/07/27 11:40:22;;;;;;;6.25;3.60;;;;;;;29.63;39.33;97778.06;5031676;28;20021;-60
2021/07/27 11:42:59;;;;;;;4.70;3.50;;;;;;;30.33;38.55;97773.84;5034177;28;20068;-58
2021/07/27 11:45:25;;;;;;;4.95;3.40;;;;;;;31.21;38.40;97771.53;5032824;28;20116;-60
2021/07/27 11:47:50;;;;;;;6.65;3.40;;;;;;;30.78;38.61;97760.06;5031784;28;20040;-60
2021/07/27 11:50:26;;;;;;;5.88;3.70;;;;;;;31.13;38.97;97771.69;5032037;28;20029;-60